Terminal Aerodrome Forecast
Issued by NWS

Home | Current Version | Previous Version | Text Only | Print | Product List | Glossary On
Versions: 1 2 3 4 5 6 7 8 9 10 11 12
682
FTUS45 KABQ 121740
TAFFMN
TAF
KFMN 121740Z 1218/1318 12007KT P6SM SKC
     FM122000 27006KT P6SM SKC
     FM130200 VRB04KT P6SM SKC
     FM130900 08006KT P6SM SKC=

USA.gov is the U.S. government's official web portal to all federal, state and local government web resources and services.